createdAt,value
2023-05-23T00:04:49.752Z,4.55
2023-05-23T00:09:54.690Z,5.22
2023-05-23T00:14:58.355Z,3.65
2023-05-23T00:20:02.096Z,4.10
2023-05-23T00:25:08.293Z,3.90
2023-05-23T00:30:12.610Z,4.30
2023-05-23T00:35:16.628Z,4.33
2023-05-23T00:40:21.878Z,4.72
2023-05-23T00:50:31.334Z,4.40
2023-05-23T00:55:37.453Z,4.97
2023-05-23T01:00:40.757Z,5.07
2023-05-23T01:05:44.572Z,4.75
2023-05-23T01:10:50.103Z,3.92
2023-05-23T01:16:02.704Z,4.40
2023-05-23T01:21:11.295Z,4.97
2023-05-23T01:26:32.753Z,4.72
2023-05-23T01:31:39.568Z,5.00
2023-05-23T01:36:45.316Z,4.45
2023-05-23T01:41:50.072Z,5.53
2023-05-23T01:46:55.253Z,5.47
2023-05-23T01:52:00.593Z,6.68
2023-05-23T01:57:05.960Z,5.82
2023-05-23T02:02:11.208Z,6.60
2023-05-23T02:12:17.917Z,7.35
2023-05-23T02:17:24.262Z,8.05
2023-05-23T02:22:27.596Z,7.28
2023-05-23T02:27:31.615Z,7.85
2023-05-23T02:32:38.077Z,8.82
2023-05-23T02:37:41.602Z,9.75
2023-05-23T02:42:44.990Z,9.02
2023-05-23T02:47:49.691Z,9.05
2023-05-23T02:52:53.050Z,10.43
2023-05-23T02:57:58.805Z,9.85
2023-05-23T03:03:03.633Z,9.75
2023-05-23T03:08:07.207Z,9.68
2023-05-23T03:13:10.623Z,8.77
2023-05-23T03:18:16.318Z,9.07
2023-05-23T03:23:19.868Z,9.18
2023-05-23T03:28:23.489Z,10.27
2023-05-23T03:33:29.822Z,10.75
2023-05-23T03:38:33.407Z,10.82
2023-05-23T03:43:36.734Z,10.07
2023-05-23T03:48:41.964Z,12.00
2023-05-23T03:53:45.694Z,10.95
2023-05-23T03:58:50.870Z,12.93
2023-05-23T04:03:56.095Z,12.48
2023-05-23T04:09:02.760Z,11.00
2023-05-23T04:14:08.151Z,12.00
2023-05-23T04:19:13.386Z,12.75
2023-05-23T04:29:20.514Z,10.75
2023-05-23T04:34:26.089Z,10.55
2023-05-23T04:39:30.917Z,10.85
2023-05-23T04:44:53.680Z,11.15
2023-05-23T04:50:03.654Z,10.75
2023-05-23T04:55:08.674Z,10.32
2023-05-23T05:00:14.871Z,11.17
2023-05-23T05:05:19.766Z,10.73
2023-05-23T05:10:24.294Z,10.65
2023-05-23T05:15:27.651Z,10.10
2023-05-23T05:20:35.360Z,9.90
2023-05-23T05:25:41.302Z,11.48
2023-05-23T05:30:46.442Z,12.32
2023-05-23T05:35:52.459Z,11.63
2023-05-23T05:40:55.767Z,11.20
2023-05-23T05:46:00.876Z,12.38
2023-05-23T05:51:06.596Z,12.00
2023-05-23T05:56:10.869Z,13.52
2023-05-23T06:01:15.721Z,16.33
2023-05-23T06:06:20.850Z,15.68
2023-05-23T06:11:25.009Z,17.00
2023-05-23T06:16:28.831Z,16.00
2023-05-23T06:21:33.840Z,15.93
2023-05-23T06:26:38.952Z,16.60
2023-05-23T06:31:42.367Z,15.73
2023-05-23T06:36:48.475Z,15.80
2023-05-23T06:41:52.901Z,19.05
2023-05-23T06:46:58.829Z,19.17
2023-05-23T06:52:03.935Z,17.45
2023-05-23T06:57:07.544Z,14.98
2023-05-23T07:02:11.563Z,14.25
2023-05-23T07:07:17.140Z,13.70
2023-05-23T07:12:21.525Z,13.38
2023-05-23T07:17:25.204Z,12.18
2023-05-23T07:22:30.908Z,11.40
2023-05-23T07:32:38.259Z,7.82
2023-05-23T07:37:45.031Z,8.82
2023-05-23T07:42:49.211Z,9.45
2023-05-23T07:47:52.854Z,8.27
2023-05-23T07:52:58.199Z,7.60
2023-05-23T07:58:05.891Z,7.95
2023-05-23T08:03:10.025Z,6.80
2023-05-23T08:08:21.998Z,7.40
2023-05-23T08:18:56.724Z,10.85
2023-05-23T08:24:01.873Z,7.40
2023-05-23T08:29:05.494Z,7.32
2023-05-23T08:34:09.590Z,7.63
2023-05-23T08:39:16.122Z,6.90
2023-05-23T08:44:30.514Z,8.38
2023-05-23T08:49:39.617Z,7.47
2023-05-23T08:54:45.849Z,8.43
2023-05-23T08:59:53.383Z,7.32
2023-05-23T09:05:00.025Z,8.63
2023-05-23T09:10:08.157Z,8.50
2023-05-23T09:15:13.545Z,8.77
2023-05-23T09:20:19.356Z,8.75
2023-05-23T09:25:33.900Z,7.40
2023-05-23T09:30:37.861Z,9.15
2023-05-23T09:35:46.692Z,8.43
2023-05-23T09:40:51.910Z,8.32
2023-05-23T09:51:01.653Z,9.07
2023-05-23T09:56:12.492Z,8.98
2023-05-23T10:01:17.245Z,9.20
2023-05-23T10:06:27.972Z,9.75
2023-05-23T10:12:22.267Z,9.88
2023-05-23T10:17:33.305Z,7.95
2023-05-23T10:22:37.775Z,8.18
2023-05-23T10:27:43.554Z,8.00
2023-05-23T10:32:47.792Z,7.13
2023-05-23T10:37:58.553Z,8.00
2023-05-23T10:43:09.453Z,7.38
2023-05-23T10:48:35.751Z,6.05
2023-05-23T10:53:40.747Z,6.30
2023-05-23T10:58:45.813Z,5.28
2023-05-23T11:03:55.536Z,4.15
2023-05-23T11:09:07.354Z,3.13
2023-05-23T11:14:13.029Z,2.03
2023-05-23T11:19:28.817Z,1.90
2023-05-23T11:24:54.825Z,1.65
2023-05-23T11:30:01.705Z,1.55
2023-05-23T11:35:06.552Z,2.90
2023-05-23T11:40:29.900Z,1.20
2023-05-23T11:45:35.851Z,1.35
2023-05-23T11:50:47.566Z,1.55
2023-05-23T11:55:53.440Z,1.55
2023-05-23T12:01:02.705Z,1.33
2023-05-23T12:06:06.156Z,1.90
2023-05-23T12:11:09.790Z,2.42
2023-05-23T12:16:16.149Z,3.17
2023-05-23T12:21:19.928Z,2.88
2023-05-23T12:26:24.021Z,3.13
2023-05-23T12:31:29.289Z,3.15
2023-05-23T12:36:33.256Z,2.85
2023-05-23T12:41:37.008Z,2.70
2023-05-23T12:46:41.995Z,2.05
2023-05-23T12:51:45.694Z,2.03
2023-05-23T12:56:49.147Z,2.33
2023-05-23T13:01:54.252Z,2.72
2023-05-23T13:06:58.092Z,3.40
2023-05-23T13:12:01.786Z,3.97
2023-05-23T13:17:07.308Z,3.83
2023-05-23T13:22:11.909Z,3.63
2023-05-23T13:27:15.656Z,3.07
2023-05-23T13:32:20.706Z,2.63
2023-05-23T13:37:24.344Z,2.47
2023-05-23T13:42:28.126Z,2.60
2023-05-23T13:47:32.807Z,2.92
2023-05-23T13:52:36.660Z,3.33
2023-05-23T13:57:40.457Z,3.92
2023-05-23T14:02:45.432Z,3.85
2023-05-23T14:07:49.231Z,3.65
2023-05-23T14:12:52.807Z,3.92
2023-05-23T14:17:57.864Z,3.40
2023-05-23T14:23:01.774Z,3.85
2023-05-23T14:28:05.358Z,4.18
2023-05-23T14:33:11.377Z,3.70
2023-05-23T14:38:15.133Z,3.40
2023-05-23T14:43:18.771Z,3.30
2023-05-23T14:48:23.794Z,2.90
2023-05-23T14:53:28.055Z,3.00
2023-05-23T14:58:31.800Z,3.10
2023-05-23T15:03:37.102Z,2.15
2023-05-23T15:08:41.864Z,1.95
2023-05-23T15:13:45.611Z,2.23
2023-05-23T15:18:50.705Z,2.35
2023-05-23T15:23:54.655Z,2.85
2023-05-23T15:28:58.469Z,2.50
2023-05-23T15:34:03.948Z,2.60
2023-05-23T15:39:07.710Z,2.58
2023-05-23T15:44:13.405Z,3.03
2023-05-23T15:49:26.550Z,4.00
2023-05-23T15:54:30.752Z,4.95
2023-05-23T15:59:34.247Z,5.60
2023-05-23T16:04:39.387Z,6.32
2023-05-23T16:09:43.152Z,6.63
2023-05-23T16:14:46.984Z,6.78
2023-05-23T16:19:51.828Z,6.95
2023-05-23T16:24:55.729Z,7.60
2023-05-23T16:29:59.466Z,5.50
2023-05-23T16:35:04.541Z,5.18
2023-05-23T16:40:09.372Z,5.80
2023-05-23T16:45:13.027Z,5.27
2023-05-23T16:50:18.165Z,4.60
2023-05-23T16:55:21.800Z,4.45
2023-05-23T17:00:25.412Z,4.88
2023-05-23T17:05:30.142Z,6.05
2023-05-23T17:10:33.738Z,6.00
2023-05-23T17:15:37.684Z,5.35
2023-05-23T17:20:43.197Z,6.30
2023-05-23T17:25:46.974Z,5.63
2023-05-23T17:30:51.658Z,5.13
2023-05-23T17:35:56.705Z,5.30
2023-05-23T17:41:00.560Z,5.95
2023-05-23T17:46:04.089Z,6.03
2023-05-23T17:51:09.076Z,5.93
2023-05-23T17:56:12.790Z,5.32
2023-05-23T18:01:16.422Z,5.32
2023-05-23T18:06:21.249Z,5.18
2023-05-23T18:11:25.840Z,4.63
2023-05-23T18:16:29.478Z,4.72
2023-05-23T18:21:34.921Z,3.83
2023-05-23T18:26:42.272Z,4.28
2023-05-23T18:31:46.123Z,5.10
2023-05-23T18:36:50.840Z,3.83
2023-05-23T18:41:54.055Z,3.50
2023-05-23T18:46:57.444Z,4.75
2023-05-23T18:52:02.185Z,3.92
2023-05-23T18:57:05.556Z,5.60
2023-05-23T19:02:08.878Z,3.55
2023-05-23T19:07:13.897Z,3.60
2023-05-23T19:12:17.185Z,3.50
2023-05-23T19:17:20.491Z,4.53
2023-05-23T19:22:27.788Z,4.07
2023-05-23T19:27:32.815Z,3.35
2023-05-23T19:32:36.718Z,4.38
2023-05-23T19:37:41.640Z,3.28
2023-05-23T19:42:45.159Z,3.83
2023-05-23T19:47:48.468Z,3.35
2023-05-23T19:52:53.548Z,3.67
2023-05-23T19:57:56.925Z,4.07
2023-05-23T20:03:00.374Z,3.60
2023-05-23T20:08:04.999Z,4.30
2023-05-23T20:13:08.220Z,3.72
2023-05-23T20:18:11.640Z,4.93
2023-05-23T20:23:16.321Z,5.03
2023-05-23T20:28:21.129Z,3.75
2023-05-23T20:33:24.939Z,3.63
2023-05-23T20:38:30.193Z,3.97
2023-05-23T20:43:37.327Z,3.28
2023-05-23T20:48:41.299Z,3.50
2023-05-23T20:53:46.113Z,3.88
2023-05-23T20:58:49.326Z,4.07
2023-05-23T21:03:52.529Z,3.75
2023-05-23T21:08:57.114Z,3.30
2023-05-23T21:14:00.565Z,3.92
2023-05-23T21:19:03.814Z,3.58
2023-05-23T21:24:08.550Z,3.25
2023-05-23T21:29:11.811Z,3.27
2023-05-23T21:34:23.815Z,4.20
2023-05-23T21:39:39.178Z,3.38
2023-05-23T21:44:47.006Z,3.60
2023-05-23T21:49:50.798Z,3.38
2023-05-23T21:54:55.733Z,4.47
2023-05-23T21:59:59.364Z,3.50
2023-05-23T22:05:02.900Z,3.38
2023-05-23T22:10:09.147Z,3.40
2023-05-23T22:15:12.919Z,3.97
2023-05-23T22:20:16.805Z,3.60
2023-05-23T22:25:21.886Z,3.53
2023-05-23T22:30:25.108Z,3.55
2023-05-23T22:35:28.378Z,2.92
2023-05-23T22:40:33.032Z,2.75
2023-05-23T22:45:40.632Z,2.70
2023-05-23T22:50:44.530Z,3.10
2023-05-23T22:55:49.924Z,3.10
2023-05-23T23:00:53.207Z,2.30
2023-05-23T23:05:57.490Z,3.13
2023-05-23T23:11:02.150Z,4.57
2023-05-23T23:16:06.770Z,2.63
2023-05-23T23:21:10.330Z,3.13
2023-05-23T23:26:15.236Z,3.83
2023-05-23T23:31:18.670Z,4.03
2023-05-23T23:36:22.371Z,3.10
2023-05-23T23:41:27.594Z,4.13
2023-05-23T23:46:31.243Z,2.95
2023-05-23T23:51:34.856Z,3.00
2023-05-23T23:56:39.938Z,3.00
